Monday, July 23, 2018, 7:36 AM EDT
Back to Local

KPQI, Presque Isle

Location: Presque Isle, ME, United States Lat: 46.683
Local Time: 7:36 AM EDT (11:36 GMT) Lon: -68.05
Time Zone: US/Eastern Elev: 534 ft

Show me the last for .
Show Coded

Time T Td Feel RH Dir Speed Gust Alt SLP Vis Weather Sky Remarks
2018-07-23 07:10 72 70 76 94 180° 6 - 30.26 - 10 -RA BKN013 OVC047 1-hr Precip Total: Trace
2018-07-23 06:56 71 69 76 93 170° 6 - 30.26 30.35 10 SCT013 SCT040 OVC049 1-hr Precip Total: 0.01"
2018-07-23 05:56 71 69 76 93 190° 7 - 30.25 30.34 10 -RA OVC011 1-hr Precip Total: Trace
2018-07-23 05:38 72 70 76 94 190° 5 - 30.25 - 10 OVC013 1-hr Precip Total: Trace
2018-07-23 05:22 72 70 76 94 200° 6 - 30.24 - 10 BKN015 BKN022 OVC090 1-hr Precip Total: Trace
2018-07-23 04:56 71 69 76 93 190° 5 - 30.23 30.33 10 -RA FEW011 BKN035 OVC065 1-hr Precip Total: 0.01"
6-hr Precip Total (5am): 0.01"
2018-07-23 04:37 72 70 76 94 180° 8 - 30.23 - 9 -RA BKN011 OVC040 1-hr Precip Total: Trace
2018-07-23 03:56 72 69 76 90 180° 9 - 30.23 30.32 10 BKN048 OVC070 None
2018-07-23 02:56 72 70 76 93 180° 10 - 30.22 30.32 10 FEW015 OVC060 None
2018-07-23 02:46 72 70 76 94 180° 12 - 30.22 - 10 SCT015 SCT037 OVC055 None
2018-07-23 02:26 72 70 76 94 180° 10 - 30.23 - 10 OVC015 None
2018-07-23 01:56 72 70 76 93 160° 6 - 30.23 30.32 10 -RA OVC012 1-hr Precip Total: Trace
6-hr Precip Total (2am): 0.01"
6-hr Min Temp (2am): 71.1°F
6-hr Max Temp (2am): 73.9°F
2018-07-23 00:56 71 70 76 96 150° 6 - 30.23 30.33 10 -RA BKN010 OVC016 1-hr Precip Total: 0.01"
24-hr Min Temp (1am): 52.0°F
24-hr Max Temp (1am): 84.9°F
2018-07-22 23:56 71 69 76 93 150° 8 - 30.25 30.34 10 -RA BKN012 OVC100 1-hr Precip Total: Trace
2018-07-22 22:56 71 68 76 90 160° 7 - 30.25 30.35 10 -RA FEW050 BKN110 1-hr Precip Total: Trace
6-hr Precip Total (11pm): 0.00"
2018-07-22 21:56 72 65 76 78 160° 6 - 30.26 30.36 9 FEW095 1-hr Precip Total: Trace
2018-07-22 20:56 74 64 77 71 - Calm - 30.26 30.36 10 FEW055 OVC100 None
2018-07-22 19:56 74 63 77 68 - Calm - 30.24 30.34 10 OVC100 6-hr Precip Total (8pm): 0.00"
6-hr Min Temp (8pm): 73.9°F
6-hr Max Temp (8pm): 84.9°F
2018-07-22 18:56 76 61 78 59 190° 5 - 30.23 30.34 10 FEW049 OVC100 1-hr Precip Total: Trace
2018-07-22 17:56 81 58 81 45 190° 5 - 30.22 30.33 10 BKN055 BKN070 OVC110 None
2018-07-22 16:56 82 57 82 42 190° 9 - 30.21 30.32 10 BKN075 OVC090 None
2018-07-22 15:56 83 56 - 39 180° 12 - 30.21 30.31 10 BKN080 None
2018-07-22 14:56 84 55 - 37 160° 12 - 30.20 30.30 10 CLR None
2018-07-22 13:56 83 54 - 37 180° 13 - 30.20 30.30 10 CLR 6-hr Min Temp (2pm): 66.9°F
6-hr Max Temp (2pm): 82.9°F
2018-07-22 12:56 81 56 81 42 130° 9 17 30.21 30.32 10 BKN060 None
2018-07-22 11:56 81 52 - 36 160° 13 - 30.22 30.32 10 CLR None
2018-07-22 10:56 77 51 78 40 120° 10 18 30.23 30.34 10 CLR None
2018-07-22 09:56 75 53 77 46 160° 10 - 30.23 30.33 10 CLR None
2018-07-22 08:56 72 59 76 63 160° 7 - 30.23 30.33 10 CLR None
2018-07-22 07:56 67 60 - 78 150° 3 - 30.23 30.33 10 CLR 6-hr Min Temp (8am): 52.0°F
6-hr Max Temp (8am): 66.9°F

Support USWX by starting your Amazon purchase here.